Time;durP1;ratioP1;P1;durP2;ratioP2;P2;SDS_P1;SDS_P2;PMS_P1;PMS_P2;Temp;Humidity;BMP_temperature;BMP_pressure;BME280_temperature;BME280_humidity;BME280_pressure;Samples;Min_cycle;Max_cycle;Signal;HPM_P1;HPM_P2
2023/10/27 00:00:13;;;;;;;28.80;12.23;;;16.40;99.90;;;;;;5225673;28;20040;-74
2023/10/27 00:02:44;;;;;;;28.23;13.50;;;16.50;99.90;;;;;;5225871;28;20529;-76
2023/10/27 00:05:15;;;;;;;33.30;12.70;;;16.40;99.90;;;;;;5225734;28;20041;-74
2023/10/27 00:07:46;;;;;;;30.33;11.95;;;16.40;99.90;;;;;;5225202;28;20128;-74
2023/10/27 00:10:17;;;;;;;29.52;11.68;;;16.40;99.90;;;;;;5225549;28;20544;-75
2023/10/27 00:12:50;;;;;;;27.52;11.82;;;16.30;99.90;;;;;;5229511;28;20017;-75
2023/10/27 00:15:22;;;;;;;32.40;11.80;;;16.40;99.90;;;;;;5229553;28;20037;-74
2023/10/27 00:17:52;;;;;;;31.13;12.15;;;16.20;99.90;;;;;;5229918;28;20051;-74
2023/10/27 00:20:24;;;;;;;30.75;12.95;;;16.20;99.90;;;;;;5229583;28;20025;-75
2023/10/27 00:22:55;;;;;;;24.27;12.25;;;16.20;99.90;;;;;;5229644;28;20029;-74
2023/10/27 00:25:26;;;;;;;27.45;13.80;;;16.30;99.90;;;;;;5229522;28;20070;-75
2023/10/27 00:28:03;;;;;;;24.77;12.88;;;16.30;99.90;;;;;;5229166;28;20078;-75
2023/10/27 00:30:34;;;;;;;25.05;12.10;;;16.30;99.90;;;;;;5229385;28;20064;-75
2023/10/27 00:33:05;;;;;;;26.92;12.02;;;16.30;99.90;;;;;;5229490;28;20067;-75
2023/10/27 00:35:36;;;;;;;27.13;11.35;;;16.20;99.90;;;;;;5229252;28;20033;-74
2023/10/27 00:38:06;;;;;;;27.45;12.35;;;16.20;99.90;;;;;;5229218;28;20055;-74
2023/10/27 00:40:37;;;;;;;23.33;11.18;;;16.20;99.90;;;;;;5229227;28;20029;-75
2023/10/27 00:43:08;;;;;;;26.48;12.50;;;16.20;99.90;;;;;;5229064;28;20060;-74
2023/10/27 00:45:39;;;;;;;22.60;12.85;;;16.20;99.90;;;;;;5229250;28;20021;-74
2023/10/27 00:48:10;;;;;;;25.10;12.50;;;16.20;99.90;;;;;;5229230;28;20625;-75
2023/10/27 00:50:41;;;;;;;35.83;12.90;;;16.20;99.90;;;;;;5229099;28;20560;-74
2023/10/27 00:53:15;;;;;;;35.17;12.38;;;16.20;99.90;;;;;;5229045;28;20025;-75
2023/10/27 00:55:47;;;;;;;27.83;11.20;;;16.20;99.90;;;;;;5229079;28;20036;-75
2023/10/27 00:58:20;;;;;;;29.13;11.57;;;16.10;99.90;;;;;;5228874;28;20044;-75
2023/10/27 01:00:55;;;;;;;21.27;10.35;;;16.10;99.90;;;;;;5228935;28;20535;-74
2023/10/27 01:03:25;;;;;;;27.55;10.60;;;16.00;99.90;;;;;;5228075;28;20036;-74
2023/10/27 01:05:56;;;;;;;22.90;9.90;;;16.10;99.90;;;;;;5228679;28;20029;-73
2023/10/27 01:08:27;;;;;;;19.52;9.55;;;16.10;99.90;;;;;;5227361;28;20025;-73
2023/10/27 01:10:58;;;;;;;25.15;11.40;;;16.20;99.90;;;;;;5227788;28;20025;-76
2023/10/27 01:13:29;;;;;;;25.45;10.63;;;16.20;99.90;;;;;;5227592;28;20100;-74
2023/10/27 01:16:00;;;;;;;21.70;9.88;;;16.00;99.90;;;;;;5227333;28;20040;-74
2023/10/27 01:18:30;;;;;;;25.55;9.88;;;16.00;99.90;;;;;;5227690;28;20036;-74
2023/10/27 01:21:01;;;;;;;24.25;10.73;;;16.00;99.90;;;;;;5227456;28;20361;-74
2023/10/27 01:23:32;;;;;;;23.40;10.40;;;16.00;99.90;;;;;;5227945;28;20052;-76
2023/10/27 01:26:04;;;;;;;26.70;10.43;;;16.00;99.90;;;;;;5228679;28;20108;-76
2023/10/27 01:28:35;;;;;;;25.08;9.85;;;16.00;99.90;;;;;;5228385;28;20067;-74
2023/10/27 01:31:06;;;;;;;28.73;10.85;;;16.00;99.90;;;;;;5228368;28;20029;-76
2023/10/27 01:33:38;;;;;;;26.52;11.05;;;16.10;99.90;;;;;;5228139;28;20099;-76
2023/10/27 01:36:09;;;;;;;22.90;10.07;;;16.00;99.90;;;;;;5228047;28;20017;-76
2023/10/27 01:38:39;;;;;;;21.67;10.02;;;15.90;99.90;;;;;;5227830;28;20392;-76
2023/10/27 01:41:10;;;;;;;26.55;10.35;;;16.00;99.90;;;;;;5228017;28;20078;-74
2023/10/27 01:43:41;;;;;;;24.88;9.80;;;16.00;99.90;;;;;;5227403;28;20044;-75
2023/10/27 01:46:12;;;;;;;22.58;9.95;;;16.00;99.90;;;;;;5227971;28;20029;-75
2023/10/27 01:48:43;;;;;;;25.15;10.60;;;15.90;99.90;;;;;;5227839;28;20025;-74
2023/10/27 01:51:14;;;;;;;28.13;11.85;;;16.00;99.90;;;;;;5227952;28;20029;-75
2023/10/27 01:53:52;;;;;;;23.00;11.02;;;16.00;99.90;;;;;;5227576;28;20451;-77
2023/10/27 01:56:26;;;;;;;24.55;10.23;;;16.00;99.90;;;;;;5227613;28;20086;-77
2023/10/27 01:58:57;;;;;;;26.38;10.70;;;16.00;99.90;;;;;;5227207;28;20048;-76
2023/10/27 02:01:28;;;;;;;28.23;10.55;;;15.90;99.90;;;;;;5227256;28;20017;-74
2023/10/27 02:03:59;;;;;;;22.48;10.05;;;15.90;99.90;;;;;;5226277;28;20048;-75
2023/10/27 02:06:31;;;;;;;24.05;10.48;;;15.80;99.90;;;;;;5226535;28;20063;-74
2023/10/27 02:09:02;;;;;;;28.27;10.02;;;15.90;99.90;;;;;;5226420;28;20090;-75
2023/10/27 02:11:32;;;;;;;23.42;10.90;;;16.00;99.90;;;;;;5226596;28;20096;-74
2023/10/27 02:14:03;;;;;;;27.67;10.23;;;16.00;99.90;;;;;;5226692;28;20488;-74
2023/10/27 02:16:34;;;;;;;28.85;10.82;;;16.00;99.90;;;;;;5241611;28;20523;-75
2023/10/27 02:19:05;;;;;;;24.52;10.43;;;16.00;99.90;;;;;;5227295;28;20029;-74
2023/10/27 02:21:36;;;;;;;24.50;10.70;;;15.90;99.90;;;;;;5227218;28;20083;-75
2023/10/27 02:24:07;;;;;;;29.90;10.75;;;16.00;99.90;;;;;;5227329;28;20107;-76
2023/10/27 02:26:38;;;;;;;24.13;11.23;;;15.80;99.90;;;;;;5227058;28;20021;-76
2023/10/27 02:29:09;;;;;;;25.38;11.20;;;15.90;99.90;;;;;;5226784;28;20060;-75
2023/10/27 02:31:40;;;;;;;23.77;10.48;;;15.90;99.90;;;;;;5227049;28;20388;-76
2023/10/27 02:34:11;;;;;;;22.92;10.02;;;16.00;99.90;;;;;;5226441;28;20058;-74
2023/10/27 02:36:42;;;;;;;23.92;10.98;;;16.00;99.90;;;;;;5227012;28;20464;-75
2023/10/27 02:39:13;;;;;;;23.80;10.25;;;16.00;99.90;;;;;;5226800;28;20063;-74
2023/10/27 02:41:44;;;;;;;21.48;10.50;;;15.90;99.90;;;;;;5226758;28;20723;-75
2023/10/27 02:44:15;;;;;;;26.05;10.63;;;16.00;99.90;;;;;;5226440;28;20826;-74
2023/10/27 02:46:45;;;;;;;24.80;10.75;;;16.00;99.90;;;;;;5227009;28;20067;-73
2023/10/27 02:49:16;;;;;;;28.92;10.48;;;16.00;99.90;;;;;;5226995;28;20021;-74
2023/10/27 02:51:47;;;;;;;23.27;11.48;;;16.00;99.90;;;;;;5226524;28;20024;-74
2023/10/27 02:54:18;;;;;;;19.73;10.82;;;15.90;99.90;;;;;;5226647;28;20021;-73
2023/10/27 02:56:49;;;;;;;26.00;11.07;;;15.80;99.90;;;;;;5226183;28;20017;-75
2023/10/27 02:59:20;;;;;;;26.65;11.27;;;15.90;99.90;;;;;;5225722;28;20039;-75
2023/10/27 03:01:52;;;;;;;29.15;12.02;;;15.90;99.90;;;;;;5225665;28;20107;-74
2023/10/27 03:04:23;;;;;;;28.95;11.85;;;16.00;99.90;;;;;;5225322;28;20025;-74
2023/10/27 03:06:54;;;;;;;24.75;11.10;;;15.90;99.90;;;;;;5225542;28;20025;-74
2023/10/27 03:09:25;;;;;;;22.95;11.40;;;15.90;99.90;;;;;;5225574;28;20460;-74
2023/10/27 03:11:55;;;;;;;19.63;10.77;;;15.90;99.90;;;;;;5225104;28;20037;-73
2023/10/27 03:14:26;;;;;;;23.92;10.30;;;16.00;99.90;;;;;;5225515;28;20024;-75
2023/10/27 03:16:57;;;;;;;23.35;11.20;;;15.90;99.90;;;;;;5226217;28;20060;-74
2023/10/27 03:19:28;;;;;;;22.13;11.15;;;16.00;99.90;;;;;;5226258;28;20096;-75
2023/10/27 03:22:00;;;;;;;24.17;10.73;;;15.90;99.90;;;;;;5226190;28;20031;-74
2023/10/27 03:24:31;;;;;;;25.83;11.43;;;15.90;99.90;;;;;;5226084;28;20096;-74
2023/10/27 03:27:02;;;;;;;22.92;10.70;;;15.90;99.90;;;;;;5226271;28;20124;-74
2023/10/27 03:29:33;;;;;;;24.40;12.05;;;15.80;99.90;;;;;;5225905;28;20083;-74
2023/10/27 03:32:06;;;;;;;17.90;9.70;;;15.90;99.90;;;;;;5226113;28;20032;-75
2023/10/27 03:34:37;;;;;;;23.67;10.60;;;15.80;99.90;;;;;;5225784;28;20021;-75
2023/10/27 03:37:08;;;;;;;19.40;9.18;;;15.90;99.90;;;;;;5225963;28;20495;-75
2023/10/27 03:39:40;;;;;;;20.30;9.55;;;15.70;99.90;;;;;;5226026;28;20025;-75
2023/10/27 03:42:11;;;;;;;23.15;10.82;;;15.80;99.90;;;;;;5225832;28;20083;-73
2023/10/27 03:44:42;;;;;;;26.05;10.75;;;15.80;99.90;;;;;;5226229;28;20053;-74
2023/10/27 03:47:15;;;;;;;24.70;10.48;;;15.80;99.90;;;;;;5230241;28;20538;-75
2023/10/27 03:49:46;;;;;;;23.65;10.52;;;15.90;99.90;;;;;;5229736;28;20044;-74
2023/10/27 03:52:17;;;;;;;21.65;10.50;;;15.80;99.90;;;;;;5229470;28;20029;-74
2023/10/27 03:54:47;;;;;;;23.23;10.32;;;15.70;99.90;;;;;;5229087;28;20078;-74
2023/10/27 03:57:18;;;;;;;23.10;10.88;;;15.70;99.90;;;;;;5228890;28;20036;-74
2023/10/27 03:59:49;;;;;;;19.10;11.00;;;15.70;99.90;;;;;;5228722;28;20033;-75
2023/10/27 04:02:20;;;;;;;19.88;10.00;;;15.80;99.90;;;;;;5228914;28;20099;-75
2023/10/27 04:04:51;;;;;;;23.95;10.90;;;15.70;99.90;;;;;;5228761;28;20021;-74
2023/10/27 04:07:22;;;;;;;22.25;9.65;;;15.60;99.90;;;;;;5228733;28;20534;-73
2023/10/27 04:09:53;;;;;;;21.45;10.27;;;15.70;99.90;;;;;;5229584;28;20041;-74
2023/10/27 04:12:23;;;;;;;21.20;10.93;;;15.60;99.90;;;;;;5229576;28;20029;-73
2023/10/27 04:14:54;;;;;;;21.48;10.68;;;15.60;99.90;;;;;;5229626;28;20021;-74
2023/10/27 04:17:25;;;;;;;24.60;11.07;;;15.60;99.90;;;;;;5229467;28;20079;-73
2023/10/27 04:19:56;;;;;;;25.35;11.32;;;15.70;99.90;;;;;;5229540;28;20376;-75
2023/10/27 04:22:27;;;;;;;24.02;12.10;;;15.60;99.90;;;;;;5229393;28;20590;-75
2023/10/27 04:24:58;;;;;;;22.10;10.68;;;15.70;99.90;;;;;;5229446;28;20030;-76
2023/10/27 04:27:29;;;;;;;24.88;10.48;;;15.60;99.90;;;;;;5229364;28;20473;-75
2023/10/27 04:30:00;;;;;;;17.58;9.57;;;15.50;99.90;;;;;;5229285;28;20396;-75
2023/10/27 04:32:31;;;;;;;26.20;9.50;;;15.50;99.90;;;;;;5229348;28;20021;-74
2023/10/27 04:35:02;;;;;;;24.85;9.77;;;15.40;99.90;;;;;;5229333;28;20036;-74
2023/10/27 04:37:33;;;;;;;21.83;9.98;;;15.50;99.90;;;;;;5229207;28;20552;-75
2023/10/27 04:40:04;;;;;;;18.65;9.50;;;15.50;99.90;;;;;;5229327;28;20120;-76
2023/10/27 04:42:35;;;;;;;22.63;10.38;;;15.60;99.90;;;;;;5229581;28;20112;-74
2023/10/27 04:45:07;;;;;;;24.55;9.80;;;15.50;99.90;;;;;;5234681;28;20112;-75
2023/10/27 04:47:38;;;;;;;19.58;9.13;;;15.60;99.90;;;;;;5249568;28;20453;-75
2023/10/27 04:50:10;;;;;;;25.73;9.88;;;15.50;99.90;;;;;;5248961;28;20055;-74
2023/10/27 04:52:40;;;;;;;22.90;10.65;;;15.60;99.90;;;;;;5248536;28;20031;-74
2023/10/27 04:55:12;;;;;;;19.90;9.85;;;15.50;99.90;;;;;;5248534;28;20364;-74
2023/10/27 04:57:42;;;;;;;22.95;9.82;;;15.50;99.90;;;;;;5247906;28;20027;-74
2023/10/27 05:00:13;;;;;;;25.15;10.65;;;15.50;99.90;;;;;;5244823;28;20020;-75
2023/10/27 05:02:44;;;;;;;27.80;11.70;;;15.60;99.90;;;;;;5237521;28;20017;-74
2023/10/27 05:05:15;;;;;;;25.83;11.85;;;15.60;99.90;;;;;;5228448;28;20436;-75
2023/10/27 05:07:48;;;;;;;23.48;10.15;;;15.80;99.90;;;;;;5228838;28;20033;-74
2023/10/27 05:10:19;;;;;;;23.38;10.80;;;15.60;99.90;;;;;;5228449;28;20039;-74
2023/10/27 05:12:49;;;;;;;22.55;12.77;;;15.70;99.90;;;;;;5228633;28;20377;-75
2023/10/27 05:15:21;;;;;;;33.15;19.75;;;15.70;99.90;;;;;;5228545;28;20032;-74
2023/10/27 05:17:52;;;;;;;35.22;20.60;;;15.70;99.90;;;;;;5228523;28;20048;-74
2023/10/27 05:20:23;;;;;;;35.10;20.73;;;15.80;99.90;;;;;;5228362;28;20025;-75
2023/10/27 05:22:54;;;;;;;29.85;19.08;;;15.80;99.90;;;;;;5228330;28;20021;-74
2023/10/27 05:25:25;;;;;;;28.60;13.68;;;15.90;99.90;;;;;;5228360;28;20040;-74
2023/10/27 05:27:56;;;;;;;34.95;13.70;;;16.20;99.90;;;;;;5233194;28;20024;-73
2023/10/27 05:30:27;;;;;;;29.17;13.27;;;16.70;99.90;;;;;;5249081;28;20058;-74
2023/10/27 05:32:57;;;;;;;28.40;12.60;;;16.80;99.90;;;;;;5248948;28;20037;-78
2023/10/27 05:35:28;;;;;;;34.72;12.20;;;17.10;99.90;;;;;;5249085;28;20056;-75
2023/10/27 05:37:59;;;;;;;27.50;11.23;;;17.20;99.90;;;;;;5248829;28;20035;-75
2023/10/27 05:40:31;;;;;;;27.23;10.63;;;17.50;99.90;;;;;;5230665;28;20036;-77
2023/10/27 05:43:02;;;;;;;30.98;9.63;;;17.60;99.90;;;;;;5241626;28;20048;-77
2023/10/27 05:45:33;;;;;;;24.25;10.30;;;17.80;99.90;;;;;;5221682;28;20033;-77
2023/10/27 05:48:04;;;;;;;24.80;9.63;;;17.90;99.90;;;;;;5243415;28;20024;-76
2023/10/27 05:50:35;;;;;;;28.20;10.38;;;17.90;99.90;;;;;;5242538;28;20062;-75
2023/10/27 05:53:06;;;;;;;29.50;10.05;;;18.10;99.90;;;;;;5242929;28;20028;-77
2023/10/27 05:55:37;;;;;;;26.85;10.20;;;18.20;99.90;;;;;;5243230;28;20039;-75
2023/10/27 05:58:08;;;;;;;31.60;10.05;;;18.30;99.90;;;;;;5243666;28;20025;-75
2023/10/27 06:00:39;;;;;;;30.92;9.93;;;18.30;99.90;;;;;;5243307;28;20055;-77
2023/10/27 06:03:10;;;;;;;28.67;10.38;;;18.30;99.90;;;;;;5243886;28;20032;-76
2023/10/27 06:05:40;;;;;;;28.67;10.30;;;18.40;99.90;;;;;;5243739;28;20483;-78
2023/10/27 06:08:11;;;;;;;26.65;11.35;;;18.50;99.90;;;;;;5243346;28;20032;-77
2023/10/27 06:10:42;;;;;;;31.67;11.65;;;18.60;99.90;;;;;;5241909;28;20041;-77
2023/10/27 06:13:14;;;;;;;28.27;11.13;;;18.70;99.90;;;;;;5243779;28;20024;-77
2023/10/27 06:15:45;;;;;;;28.52;11.90;;;18.90;99.90;;;;;;5243019;28;20059;-76
2023/10/27 06:18:16;;;;;;;31.67;10.27;;;18.90;99.90;;;;;;5244192;28;20360;-77
2023/10/27 06:20:47;;;;;;;29.70;10.07;;;19.10;99.90;;;;;;5242972;28;20036;-77
2023/10/27 06:23:18;;;;;;;31.02;9.85;;;19.10;99.90;;;;;;5243442;28;20353;-77
2023/10/27 06:25:49;;;;;;;24.92;10.45;;;19.10;99.90;;;;;;5241814;28;20063;-78
2023/10/27 06:28:19;;;;;;;30.52;10.88;;;19.20;99.90;;;;;;5243440;28;20024;-78
2023/10/27 06:30:50;;;;;;;29.80;10.15;;;19.40;99.90;;;;;;5242680;28;20044;-78
2023/10/27 06:33:22;;;;;;;28.55;11.18;;;19.50;99.90;;;;;;5243462;28;20024;-77
2023/10/27 06:35:54;;;;;;;28.63;11.80;;;19.60;99.90;;;;;;5243183;28;20468;-77
2023/10/27 06:38:25;;;;;;;29.83;12.70;;;19.70;99.90;;;;;;5242065;28;20019;-77
2023/10/27 06:40:56;;;;;;;34.83;12.23;;;19.90;99.90;;;;;;5242445;28;20055;-76
2023/10/27 06:43:27;;;;;;;28.20;11.27;;;19.90;99.90;;;;;;5241392;28;20122;-78
2023/10/27 06:45:58;;;;;;;29.95;11.77;;;20.10;99.90;;;;;;5238652;28;20111;-77
2023/10/27 06:48:29;;;;;;;28.30;10.45;;;20.20;99.90;;;;;;5239403;28;20028;-77
2023/10/27 06:51:00;;;;;;;28.35;10.40;;;20.30;99.90;;;;;;5241570;28;20062;-78
2023/10/27 06:53:30;;;;;;;41.22;11.35;;;20.50;99.90;;;;;;5240996;28;20043;-75
2023/10/27 06:56:01;;;;;;;38.85;14.73;;;20.70;99.90;;;;;;5241460;28;20407;-76
2023/10/27 06:58:32;;;;;;;38.13;14.30;;;20.90;99.90;;;;;;5242014;28;20028;-78
2023/10/27 07:01:09;;;;;;;39.70;13.13;;;21.00;99.90;;;;;;5242832;28;20039;-78
2023/10/27 07:03:40;;;;;;;33.90;12.30;;;21.00;99.90;;;;;;5242901;28;20052;-78
2023/10/27 07:06:11;;;;;;;32.30;11.35;;;21.20;99.90;;;;;;5242756;28;20024;-79
2023/10/27 07:08:44;;;;;;;29.63;10.07;;;21.30;99.90;;;;;;5241782;28;20111;-77
2023/10/27 07:11:15;;;;;;;34.92;11.98;;;21.50;99.90;;;;;;5242651;28;20044;-74
2023/10/27 07:13:46;;;;;;;34.15;11.98;;;21.40;99.90;;;;;;5241790;28;21394;-74
2023/10/27 07:16:17;;;;;;;37.60;12.50;;;21.40;99.90;;;;;;5241795;28;20146;-75
2023/10/27 07:18:49;;;;;;;32.78;12.10;;;21.40;99.90;;;;;;5243334;28;20040;-74
2023/10/27 07:21:20;;;;;;;37.13;12.15;;;21.50;99.90;;;;;;5242229;28;20056;-78
2023/10/27 07:23:51;;;;;;;37.63;13.05;;;21.40;99.90;;;;;;5242330;28;20027;-75
2023/10/27 07:26:22;;;;;;;43.10;13.30;;;21.40;99.90;;;;;;5242450;28;20016;-73
2023/10/27 07:28:53;;;;;;;33.38;11.65;;;21.50;99.90;;;;;;5241869;28;20543;-76
2023/10/27 07:31:24;;;;;;;38.67;12.15;;;21.40;99.90;;;;;;5224368;28;20040;-74
2023/10/27 07:33:55;;;;;;;32.15;12.57;;;21.40;99.90;;;;;;5238749;28;20021;-76
2023/10/27 07:36:26;;;;;;;44.00;12.85;;;21.40;99.90;;;;;;5239686;28;20558;-73
2023/10/27 07:38:58;;;;;;;37.42;12.07;;;21.40;99.90;;;;;;5242092;28;20017;-73
2023/10/27 07:41:32;;;;;;;35.95;11.80;;;21.50;99.90;;;;;;5242601;28;20045;-75
2023/10/27 07:44:04;;;;;;;41.05;13.18;;;21.40;99.90;;;;;;5241670;28;20068;-72
2023/10/27 07:46:35;;;;;;;35.97;12.00;;;21.50;99.90;;;;;;5238540;28;20047;-73
2023/10/27 07:49:06;;;;;;;37.38;11.52;;;21.70;99.90;;;;;;5242211;28;20053;-73
2023/10/27 07:51:38;;;;;;;32.03;11.45;;;21.90;99.90;;;;;;5242214;28;20944;-74
2023/10/27 07:54:09;;;;;;;37.50;11.70;;;21.80;99.90;;;;;;5238752;28;20013;-75
2023/10/27 07:56:40;;;;;;;37.95;11.00;;;21.80;99.90;;;;;;5237825;28;20073;-72
2023/10/27 07:59:12;;;;;;;37.67;11.70;;;21.90;99.90;;;;;;5234833;28;20481;-74
2023/10/27 08:01:43;;;;;;;39.00;11.40;;;22.10;99.90;;;;;;5239420;28;20054;-75
2023/10/27 08:04:14;;;;;;;41.90;12.55;;;22.30;99.90;;;;;;5238069;28;20403;-76
2023/10/27 08:06:44;;;;;;;42.63;13.35;;;22.30;99.90;;;;;;5239979;28;20471;-75
2023/10/27 08:09:15;;;;;;;44.85;14.30;;;22.30;99.90;;;;;;5239769;28;20032;-74
2023/10/27 08:11:50;;;;;;;39.72;14.18;;;22.30;99.90;;;;;;5238773;28;20111;-75
2023/10/27 08:14:21;;;;;;;39.90;13.90;;;22.30;99.90;;;;;;5235896;28;20009;-74
2023/10/27 08:16:53;;;;;;;42.50;13.77;;;22.20;99.90;;;;;;5238865;28;20101;-75
2023/10/27 08:19:24;;;;;;;40.92;14.73;;;22.40;99.90;;;;;;5238128;28;20025;-75
2023/10/27 08:21:55;;;;;;;42.63;15.30;;;22.40;99.90;;;;;;5240465;28;20051;-76
2023/10/27 08:24:25;;;;;;;40.80;14.18;;;22.60;99.90;;;;;;5238964;28;20090;-75
2023/10/27 08:26:57;;;;;;;38.95;15.45;;;22.60;99.90;;;;;;5240404;28;20111;-73
2023/10/27 08:29:28;;;;;;;58.00;15.57;;;22.50;99.90;;;;;;5238960;28;20424;-74
2023/10/27 08:31:59;;;;;;;40.83;12.80;;;22.50;99.90;;;;;;5241906;28;20033;-76
2023/10/27 08:34:30;;;;;;;38.65;12.95;;;22.80;99.90;;;;;;5244819;28;20602;-75
2023/10/27 08:37:01;;;;;;;46.38;12.95;;;23.00;99.90;;;;;;5244373;28;20089;-76
2023/10/27 08:39:35;;;;;;;49.72;11.73;;;23.10;99.90;;;;;;5245648;28;20028;-78
2023/10/27 08:42:07;;;;;;;36.80;11.63;;;23.30;99.90;;;;;;5245613;28;20111;-77
2023/10/27 08:44:44;;;;;;;45.25;12.77;;;23.60;99.90;;;;;;5245624;28;20044;-77
2023/10/27 08:47:15;;;;;;;37.05;12.15;;;23.70;99.90;;;;;;5245030;28;20036;-74
2023/10/27 08:49:46;;;;;;;50.05;11.32;;;23.80;99.90;;;;;;5239257;28;20041;-77
2023/10/27 08:52:18;;;;;;;40.35;11.80;;;23.80;99.90;;;;;;5615944;23;21118;-75
2023/10/27 08:54:49;;;;;;;40.28;12.23;;;23.80;99.90;;;;;;5178429;28;20040;-77
2023/10/27 08:57:20;;;;;;;44.40;12.68;;;24.00;99.90;;;;;;5196104;28;20477;-77
2023/10/27 08:59:51;;;;;;;41.80;12.32;;;24.20;99.90;;;;;;5197352;28;20021;-74
2023/10/27 09:02:32;;;;;;;41.67;12.15;;;24.10;99.90;;;;;;5200260;28;20088;-75
2023/10/27 09:05:06;;;;;;;39.65;11.82;;;24.10;99.90;;;;;;5201074;28;20089;-75
2023/10/27 09:07:38;;;;;;;38.45;11.52;;;24.20;99.90;;;;;;5191217;28;20448;-77
2023/10/27 09:10:09;;;;;;;43.85;11.80;;;24.10;99.90;;;;;;5199185;28;20025;-78
2023/10/27 09:12:41;;;;;;;42.35;11.48;;;24.30;99.90;;;;;;5192236;28;20036;-78
2023/10/27 09:15:13;;;;;;;43.58;11.05;;;24.40;99.90;;;;;;5196438;28;20037;-77
2023/10/27 09:17:51;;;;;;;45.15;10.68;;;24.30;99.90;;;;;;5197654;28;20025;-77
2023/10/27 09:20:23;;;;;;;37.20;10.27;;;24.30;99.90;;;;;;5203238;28;20030;-78
2023/10/27 09:23:00;;;;;;;43.97;10.82;;;24.50;99.90;;;;;;5201014;28;20033;-77
2023/10/27 09:25:32;;;;;;;34.08;10.13;;;24.50;99.90;;;;;;5193684;28;20469;-74
2023/10/27 09:28:08;;;;;;;41.40;10.90;;;24.80;99.90;;;;;;5195853;28;20022;-78
2023/10/27 09:30:41;;;;;;;48.63;11.25;;;24.80;99.90;;;;;;5193145;28;20041;-78
2023/10/27 09:33:22;;;;;;;43.70;10.13;;;24.80;99.90;;;;;;5191961;28;20022;-78
2023/10/27 09:35:54;;;;;;;32.33;9.90;;;24.90;99.90;;;;;;5190055;28;20108;-74
2023/10/27 09:38:25;;;;;;;44.45;11.60;;;25.10;99.90;;;;;;5192683;28;20046;-74
2023/10/27 09:40:59;;;;;;;39.75;10.65;;;24.80;99.90;;;;;;5192849;28;20061;-76
2023/10/27 09:43:35;;;;;;;39.53;11.50;;;25.00;99.90;;;;;;5192703;28;20040;-75
2023/10/27 09:46:07;;;;;;;42.70;11.30;;;25.00;99.90;;;;;;5190389;28;20042;-78
2023/10/27 09:48:42;;;;;;;33.63;9.75;;;24.80;99.90;;;;;;5192926;28;20025;-75
2023/10/27 09:51:19;;;;;;;40.72;10.90;;;24.70;99.90;;;;;;5190845;28;20042;-75
2023/10/27 09:53:51;;;;;;;50.92;10.35;;;24.90;99.90;;;;;;5625927;23;20067;-76
2023/10/27 09:56:26;;;;;;;39.92;12.70;;;25.20;99.90;;;;;;5212489;28;20033;-77
2023/10/27 09:58:57;;;;;;;41.65;12.55;;;25.40;99.90;;;;;;5230059;28;20044;-76
2023/10/27 10:01:29;;;;;;;43.70;12.05;;;25.30;99.90;;;;;;5248527;28;20024;-79
2023/10/27 10:04:00;;;;;;;48.22;11.13;;;25.20;99.90;;;;;;5230179;28;20029;-75
2023/10/27 10:06:32;;;;;;;44.20;10.07;;;25.30;99.90;;;;;;5248567;28;20025;-72
2023/10/27 10:09:11;;;;;;;54.60;11.40;;;25.30;99.90;;;;;;5246934;28;20028;-75
2023/10/27 10:11:49;;;;;;;42.88;10.82;;;25.50;99.90;;;;;;5248277;28;20032;-72
2023/10/27 10:14:39;;;;;;;45.67;11.20;;;25.50;99.90;;;;;;5232076;28;20018;-77
2023/10/27 10:17:10;;;;;;;44.60;10.60;;;25.40;99.90;;;;;;5249001;28;20025;-77
2023/10/27 10:19:49;;;;;;;37.20;10.13;;;25.30;99.90;;;;;;5249146;28;20032;-75
2023/10/27 10:22:40;;;;;;;45.97;10.32;;;25.50;99.90;;;;;;5247450;28;20036;-75
2023/10/27 10:25:21;;;;;;;41.50;10.23;;;25.40;99.90;;;;;;5223520;28;20082;-77
2023/10/27 10:28:07;;;;;;;49.60;11.10;;;25.30;99.90;;;;;;5207952;28;20037;-75
2023/10/27 10:30:39;;;;;;;50.03;11.88;;;25.30;99.90;;;;;;5222800;28;20689;-72
2023/10/27 10:33:19;;;;;;;46.17;12.05;;;25.30;99.90;;;;;;5207641;28;20032;-75
2023/10/27 10:35:51;;;;;;;42.70;11.70;;;25.20;99.90;;;;;;5225351;28;20404;-72
2023/10/27 10:38:23;;;;;;;50.10;10.75;;;25.30;99.90;;;;;;5207093;28;20025;-72
2023/10/27 10:40:55;;;;;;;39.97;10.68;;;25.20;99.90;;;;;;5215028;28;20026;-77
2023/10/27 10:43:29;;;;;;;44.85;10.43;;;25.10;99.90;;;;;;5221303;28;20037;-78
2023/10/27 10:46:05;;;;;;;37.70;11.68;;;25.10;99.90;;;;;;5200244;28;20039;-72
2023/10/27 10:48:41;;;;;;;40.17;11.40;;;25.00;99.90;;;;;;5210914;28;20055;-73
2023/10/27 10:51:15;;;;;;;46.72;11.00;;;25.00;99.90;;;;;;5211158;28;20029;-71
2023/10/27 10:53:53;;;;;;;49.88;10.27;;;24.90;99.90;;;;;;5681087;23;20908;-75
2023/10/27 10:56:24;;;;;;;46.72;10.30;;;24.80;99.90;;;;;;5219937;28;20528;-77
2023/10/27 10:58:55;;;;;;;52.78;11.63;;;24.70;99.90;;;;;;5224860;28;20163;-72
2023/10/27 11:01:26;;;;;;;38.00;10.40;;;24.70;99.90;;;;;;5214544;28;20044;-75
2023/10/27 11:03:57;;;;;;;47.47;10.82;;;24.70;99.90;;;;;;5213546;28;20051;-72
2023/10/27 11:06:29;;;;;;;34.50;9.77;;;24.70;99.90;;;;;;5221369;28;20035;-77
2023/10/27 11:08:59;;;;;;;45.83;11.40;;;25.00;99.90;;;;;;5221624;28;20100;-77
2023/10/27 11:11:34;;;;;;;48.33;10.52;;;24.90;99.90;;;;;;5222203;28;20602;-77
2023/10/27 11:14:04;;;;;;;36.13;9.85;;;24.80;99.90;;;;;;5221913;28;20111;-77
2023/10/27 11:16:36;;;;;;;40.53;10.73;;;24.70;99.90;;;;;;5221996;28;20029;-77
2023/10/27 11:19:17;;;;;;;38.28;11.00;;;24.50;99.90;;;;;;5222040;28;20043;-78
2023/10/27 11:21:53;;;;;;;46.53;11.73;;;24.40;99.90;;;;;;5221335;28;20031;-76
2023/10/27 11:24:23;;;;;;;45.33;12.35;;;24.40;99.90;;;;;;5219876;28;20053;-76
2023/10/27 11:26:54;;;;;;;52.25;11.63;;;24.50;99.90;;;;;;5219936;28;20063;-76
2023/10/27 11:29:26;;;;;;;42.08;11.55;;;24.40;99.90;;;;;;5216574;28;20046;-77
2023/10/27 11:32:13;;;;;;;41.22;11.80;;;24.50;99.90;;;;;;5218705;28;20021;-77
2023/10/27 11:34:55;;;;;;;42.10;11.32;;;24.40;99.90;;;;;;5220295;28;20033;-77
2023/10/27 11:37:26;;;;;;;45.38;11.50;;;24.40;99.90;;;;;;5219099;28;20025;-76
2023/10/27 11:40:12;;;;;;;45.83;12.15;;;24.70;99.90;;;;;;5218203;28;20017;-78
2023/10/27 11:42:43;;;;;;;50.97;12.10;;;24.70;99.90;;;;;;5221481;28;20037;-77
2023/10/27 11:45:15;;;;;;;44.63;11.27;;;24.80;99.90;;;;;;5221890;28;20392;-77
2023/10/27 11:47:46;;;;;;;43.17;12.07;;;24.80;99.90;;;;;;5221668;28;20022;-74
2023/10/27 11:50:17;;;;;;;42.95;12.23;;;24.70;99.90;;;;;;5219797;28;20048;-78
2023/10/27 11:52:47;;;;;;;40.15;11.52;;;24.90;99.90;;;;;;5221474;28;20112;-76
2023/10/27 11:55:19;;;;;;;53.92;11.23;;;24.80;99.90;;;;;;5221696;28;20115;-77
2023/10/27 11:57:50;;;;;;;44.72;11.57;;;24.80;99.90;;;;;;5219129;28;20392;-76
2023/10/27 12:00:21;;;;;;;52.42;12.43;;;25.00;99.90;;;;;;5213655;28;20029;-76
2023/10/27 12:02:53;;;;;;;37.67;11.25;;;25.10;99.90;;;;;;5215784;28;20558;-77
2023/10/27 12:05:25;;;;;;;40.88;12.60;;;25.10;99.90;;;;;;5218637;28;20029;-77
2023/10/27 12:07:56;;;;;;;52.40;11.98;;;25.40;99.90;;;;;;5224620;28;20025;-75
2023/10/27 12:10:27;;;;;;;51.55;13.63;;;25.60;99.90;;;;;;5226050;28;20106;-76
2023/10/27 12:12:58;;;;;;;46.50;12.82;;;25.50;99.90;;;;;;5227185;28;20461;-74
2023/10/27 12:15:29;;;;;;;40.63;12.80;;;25.20;99.90;;;;;;5226714;28;20017;-76
2023/10/27 12:18:03;;;;;;;48.70;12.35;;;25.10;99.90;;;;;;5225218;28;20036;-75
2023/10/27 12:20:38;;;;;;;41.53;11.43;;;25.10;99.90;;;;;;5226467;28;20100;-74
2023/10/27 12:23:09;;;;;;;44.65;11.98;;;24.90;99.90;;;;;;5226148;28;20040;-74
2023/10/27 12:25:45;;;;;;;44.83;11.00;;;25.00;99.90;;;;;;5226333;28;20041;-74
2023/10/27 12:28:16;;;;;;;42.45;11.52;;;24.90;99.90;;;;;;5225949;28;20112;-75
2023/10/27 12:30:47;;;;;;;40.80;11.65;;;24.90;99.90;;;;;;5224994;28;20187;-73
2023/10/27 12:33:19;;;;;;;45.08;10.98;;;25.10;99.90;;;;;;5226418;28;20024;-72
2023/10/27 12:35:51;;;;;;;40.00;11.38;;;25.00;99.90;;;;;;5226173;28;20017;-73
2023/10/27 12:38:23;;;;;;;51.65;10.95;;;25.10;99.90;;;;;;5225516;28;20095;-73
2023/10/27 12:40:55;;;;;;;39.28;9.63;;;25.10;99.90;;;;;;5225949;28;20027;-74
2023/10/27 12:43:29;;;;;;;38.72;10.10;;;25.10;99.90;;;;;;5225781;28;20029;-74
2023/10/27 12:46:04;;;;;;;41.50;10.48;;;25.20;99.90;;;;;;5225917;28;20041;-74
2023/10/27 12:48:36;;;;;;;51.53;10.82;;;25.40;99.90;;;;;;5225989;28;20040;-74
2023/10/27 12:51:07;;;;;;;35.85;9.13;;;25.40;99.90;;;;;;5221381;28;20677;-74